PARDEE (PAR)

Elevation: 568' · MOKELUMNE R basin · Operator: East Bay Municipal Utility District

Provisional data, subject to change.
Query executed Friday at 22:20:29   clock

Select a sensor type for a plot of data.
Note: Reservoir Flows are daily averages.

Earlier

Date RES ELE    STORAGE    RES CHG    OUTFLOW    INFLOW    PPT INC   
 FEET   AF   AF   CFS   CFS   INCHES  
06/30/2016 562.51 186740 -668 1104 532 0.00
07/01/2016 562.44 186577 -163 832 398 0.00
07/02/2016 562.74 187228 651 312 342 0.00
07/03/2016 563.02 187815 587 312 523 0.00
07/04/2016 562.97 187716 -99 312 492 0.00
07/05/2016 562.52 186757 -959 732 387 0.00
07/06/2016 562.13 185914 -843 739 158 0.00
07/07/2016 561.72 185039 -875 725 193 0.00
07/08/2016 561.28 184098 -941 741 193 0.00
07/09/2016 561.22 183974 -124 310 30 0.00
07/10/2016 561.10 183727 -247 310 267 0.00
07/11/2016 561.10 183727 0 310 250 0.00
07/12/2016 561.04 183604 -123 310 305 0.00
07/13/2016 560.98 183468 -136 310 281 0.00
07/14/2016 561.06 183646 178 310 281 0.00
07/15/2016 561.15 183825 179 310 385 0.00
07/16/2016 561.31 184179 354 310 411 0.00
07/17/2016 561.41 184392 213 310 407 0.00
07/18/2016 561.54 184652 260 310 412 0.00
07/19/2016 561.65 184894 242 311 404 0.00
07/20/2016 561.76 185120 226 292 390 0.00
07/21/2016 561.96 185555 435 283 376 0.00
07/22/2016 562.16 185974 419 284 448 0.00
07/23/2016 562.32 186333 359 284 417 0.00
07/24/2016 562.44 186577 244 284 434 0.00
07/25/2016 562.62 186967 390 284 383 0.00
07/26/2016 562.80 187356 389 284 438 0.00
07/27/2016 562.94 187647 291 284 413 0.00
07/28/2016 563.08 187957 310 284 405 0.00
07/29/2016 -- -- -- -- -- --

Later | Latest

Warning! This data is preliminary and subject to revision.

Show PAR Map | Plot PAR Data | 1 Month PAR Data | Real-Time PAR Data | PAR Info